Open Full Screen Window  High Contrast Mode
Wind Gusting 17 knots
13
March 30, 2017 12:30 PM EDT
Weather Information
Wind Direction
  200 °
Wind Speed
  13 kt (15 mph)
Wind Gust
  17 kt (20 mph)
Altimeter
29.76 in
Visibility
10 SM
Temperature
20° C
68° F
Dewpoint
11° C
52° F
Humidity
56%
1hr Rain Fall
00.00 in.
24hr Rain Fall
00.00 in.
Sky Condition
Clear
VFR

METAR KI19 301630Z AUTO 20013G17KT 10SM CLR 20/11 A2976 RMK AO2 LTG DSNT W T01980109

*Background is not an actual portrayal of the airport.